Time;durP1;ratioP1;P1;durP2;ratioP2;P2;SDS_P1;SDS_P2;PMS_P1;PMS_P2;Temp;Humidity;BMP_temperature;BMP_pressure;BME280_temperature;BME280_humidity;BME280_pressure;Samples;Min_cycle;Max_cycle;Signal;HPM_P1;HPM_P2
2022/12/28 00:00:41;;;;;;;8.75;4.35;;;5.70;99.90;;;;;;6106760;23;20072;-77
2022/12/28 00:03:10;;;;;;;10.88;5.07;;;5.70;99.90;;;;;;6182664;23;20039;-77
2022/12/28 00:05:46;;;;;;;;;;;;;;;;;;;;;
2022/12/28 00:08:12;;;;;;;10.23;4.88;;;5.70;99.90;;;;;;6198261;23;20012;-76
2022/12/28 00:10:37;;;;;;;7.72;4.40;;;5.50;99.90;;;;;;6198407;23;20015;-76
2022/12/28 00:13:12;;;;;;;11.48;5.00;;;5.70;99.90;;;;;;6220436;23;20020;-76
2022/12/28 00:15:52;;;;;;;7.43;5.10;;;5.80;99.90;;;;;;6197889;23;20322;-77
2022/12/28 00:18:41;;;;;;;9.20;4.60;;;5.00;99.90;;;;;;6221019;23;20342;-77
2022/12/28 00:22:05;;;;;;;7.80;4.70;;;5.50;99.90;;;;;;6186882;23;20301;-77
2022/12/28 00:25:24;;;;;;;12.55;5.20;;;6.00;99.90;;;;;;6182605;23;20091;-79
2022/12/28 00:31:10;;;;;;;11.90;6.85;;;6.80;99.90;;;;;;6103037;23;20026;-77
2022/12/28 00:33:53;;;;;;;10.68;5.72;;;5.80;99.90;;;;;;6127502;23;20431;-79
2022/12/28 00:40:20;;;;;;;10.25;5.57;;;7.40;99.90;;;;;;6205020;23;20044;-79
2022/12/28 00:42:49;;;;;;;11.02;5.72;;;5.70;99.90;;;;;;6198101;23;20317;-79
2022/12/28 00:45:17;;;;;;;9.95;5.32;;;6.50;99.90;;;;;;6197322;23;20008;-78
2022/12/28 00:48:20;;;;;;;10.50;5.25;;;5.50;99.90;;;;;;6222445;23;20016;-80
2022/12/28 00:51:01;;;;;;;8.98;5.13;;;5.90;99.90;;;;;;6199262;23;20020;-78
2022/12/28 00:53:55;;;;;;;14.75;6.82;;;5.90;99.90;;;;;;6198104;23;20499;-79
2022/12/28 00:59:46;;;;;;;8.07;5.03;;;5.70;99.90;;;;;;6114622;23;20217;-79
2022/12/28 01:02:55;;;;;;;11.75;4.50;;;6.00;99.90;;;;;;6109894;23;20009;-80
2022/12/28 01:06:15;;;;;;;13.80;6.03;;;6.00;99.90;;;;;;6218773;23;20009;-79
2022/12/28 01:16:46;;;;;;;15.60;5.03;;;7.80;99.90;;;;;;6058100;23;20050;-78
2022/12/28 01:19:51;;;;;;;9.93;4.80;;;6.00;99.90;;;;;;6026886;23;20325;-79
2022/12/28 01:22:35;;;;;;;11.18;6.03;;;5.90;99.90;;;;;;6023074;23;20365;-77
2022/12/28 01:25:25;;;;;;;8.75;4.40;;;8.00;99.90;;;;;;6045867;23;20018;-77
2022/12/28 01:27:55;;;;;;;10.25;5.18;;;6.20;99.90;;;;;;6078942;23;20061;-78
2022/12/28 01:30:32;;;;;;;7.85;4.45;;;5.90;99.90;;;;;;6104464;23;20249;-76
2022/12/28 01:33:04;;;;;;;13.98;5.20;;;6.00;99.90;;;;;;6132708;22;20011;-76
2022/12/28 01:35:51;;;;;;;9.13;6.22;;;5.70;99.90;;;;;;6259722;22;20034;-77
2022/12/28 01:38:16;;;;;;;9.90;4.97;;;5.70;99.90;;;;;;6283701;22;20019;-77
2022/12/28 01:40:47;;;;;;;14.20;6.00;;;6.40;99.90;;;;;;6260795;22;20011;-77
2022/12/28 01:43:17;;;;;;;8.00;5.93;;;5.70;99.90;;;;;;6260806;22;20053;-77
2022/12/28 01:46:03;;;;;;;8.60;5.10;;;6.30;99.90;;;;;;6287022;22;20165;-78
2022/12/28 01:48:49;;;;;;;12.40;6.93;;;5.00;99.90;;;;;;6285785;22;20050;-78
2022/12/28 01:52:16;;;;;;;7.78;4.70;;;5.50;99.90;;;;;;6286392;22;20019;-77
2022/12/28 02:11:20;;;;;;;;;;;;;;;;;;;;;
2022/12/28 02:37:40;;;;;;;15.00;9.18;;;5.30;99.90;;;;;;5852300;24;20060;-78
2022/12/28 02:50:59;;;;;;;17.83;9.90;;;6.20;99.90;;;;;;6131513;22;20023;-79
2022/12/28 02:54:09;;;;;;;11.70;5.80;;;6.40;99.90;;;;;;6220724;22;20011;-79
2022/12/28 02:56:56;;;;;;;10.23;8.13;;;6.10;99.90;;;;;;6229723;22;20054;-79
2022/12/28 02:59:41;;;;;;;13.00;8.32;;;6.40;99.90;;;;;;6229250;22;20023;-78
2022/12/28 03:02:20;;;;;;;8.97;7.17;;;6.40;99.90;;;;;;6230637;22;20338;-77
2022/12/28 03:05:06;;;;;;;14.55;8.38;;;6.30;99.90;;;;;;6230108;22;20230;-79
2022/12/28 03:10:32;;;;;;;17.27;9.52;;;6.20;99.90;;;;;;6255983;22;19980;-78
2022/12/28 03:13:04;;;;;;;11.30;8.05;;;6.40;99.90;;;;;;6230552;22;20034;-78
2022/12/28 03:32:10;;;;;;;15.43;9.13;;;6.80;99.90;;;;;;6163335;23;20017;-78
2022/12/28 03:34:45;;;;;;;11.63;7.25;;;5.50;99.90;;;;;;6181956;23;20047;-78
2022/12/28 03:37:51;;;;;;;12.38;8.60;;;6.70;99.90;;;;;;6157635;22;20020;-78
2022/12/28 03:44:36;;;;;;;11.98;8.07;;;6.50;99.90;;;;;;6189620;22;20024;-77
2022/12/28 03:48:05;;;;;;;13.25;8.57;;;7.70;99.90;;;;;;6230758;22;20174;-78
2022/12/28 03:50:41;;;;;;;;;;;6.90;99.90;;;;;;6234145;22;20066;-77
2022/12/28 03:54:01;;;;;;;18.60;9.15;;;6.20;99.90;;;;;;6253652;22;20186;-79
2022/12/28 03:57:21;;;;;;;;;;;;;;;;;;;;;
2022/12/28 03:59:54;;;;;;;13.98;10.32;;;7.00;99.90;;;;;;6250782;22;20011;-79
2022/12/28 04:02:22;;;;;;;16.58;9.15;;;6.80;99.90;;;;;;6230711;22;20011;-79
2022/12/28 04:04:51;;;;;;;15.90;9.98;;;7.40;99.90;;;;;;6227563;22;20008;-76
2022/12/28 04:08:15;;;;;;;16.88;10.38;;;7.00;99.90;;;;;;6253941;22;20444;-79
2022/12/28 04:10:41;;;;;;;13.82;10.30;;;6.70;99.90;;;;;;6100392;23;20014;-77
2022/12/28 04:13:07;;;;;;;15.60;9.77;;;7.30;99.90;;;;;;6085296;23;20065;-78
2022/12/28 04:15:33;;;;;;;13.32;9.00;;;5.50;99.90;;;;;;6164610;22;20022;-76
2022/12/28 04:18:01;;;;;;;14.05;9.32;;;7.40;99.90;;;;;;6205411;22;20030;-77
2022/12/28 04:20:27;;;;;;;12.38;8.52;;;7.10;99.90;;;;;;6229140;22;20068;-76
2022/12/28 04:22:53;;;;;;;14.43;10.00;;;7.40;99.90;;;;;;6229619;22;20031;-76
2022/12/28 04:25:18;;;;;;;14.13;8.27;;;7.40;99.90;;;;;;6227196;22;20015;-76
2022/12/28 04:27:44;;;;;;;13.60;8.60;;;7.40;99.90;;;;;;6205272;22;20725;-77
2022/12/28 04:30:10;;;;;;;13.13;8.75;;;7.60;99.90;;;;;;6228957;22;20067;-76
2022/12/28 04:32:36;;;;;;;12.27;7.95;;;7.50;99.90;;;;;;6254952;22;20019;-76
2022/12/28 04:35:24;;;;;;;11.63;8.52;;;7.30;99.90;;;;;;6275475;22;20069;-76
2022/12/28 04:38:40;;;;;;;13.20;8.77;;;7.20;99.90;;;;;;6284217;22;20027;-78
2022/12/28 04:41:53;;;;;;;11.40;8.10;;;7.40;99.90;;;;;;6281880;22;20023;-78
2022/12/28 04:44:37;;;;;;;10.63;7.18;;;7.40;99.90;;;;;;6284529;22;20018;-77
2022/12/28 04:47:12;;;;;;;9.43;6.95;;;7.60;99.90;;;;;;6286062;22;20023;-77
2022/12/28 04:50:11;;;;;;;9.80;6.78;;;7.50;99.90;;;;;;6284142;22;20292;-76
2022/12/28 04:57:06;;;;;;;;;;;;;;;;;;;;;
2022/12/28 05:00:37;;;;;;;9.65;7.40;;;7.60;99.90;;;;;;6285090;22;20147;-80
2022/12/28 05:03:51;;;;;;;10.45;7.25;;;7.40;99.90;;;;;;6108175;23;20017;-78
2022/12/28 05:06:29;;;;;;;11.52;8.38;;;9.30;99.90;;;;;;6133208;23;20255;-77
2022/12/28 05:09:09;;;;;;;10.45;7.57;;;6.70;99.90;;;;;;6134498;23;20018;-78
2022/12/28 05:15:38;;;;;;;10.10;7.85;;;8.40;99.90;;;;;;6121834;23;20013;-78
2022/12/28 05:19:18;;;;;;;10.48;7.07;;;7.50;99.90;;;;;;6133435;23;20516;-78
2022/12/28 05:22:24;;;;;;;12.95;9.27;;;8.70;99.90;;;;;;6135020;23;20559;-78
2022/12/28 05:25:18;;;;;;;13.25;8.52;;;10.00;99.90;;;;;;6132116;23;20347;-79
2022/12/28 05:36:36;;;;;;;11.15;8.50;;;8.30;99.90;;;;;;6014019;23;20222;-78
2022/12/28 05:39:38;;;;;;;15.32;10.85;;;7.80;99.90;;;;;;5919173;23;20131;-78
2022/12/28 05:42:33;;;;;;;;;;;;;;;;;;;;;
2022/12/28 05:49:38;;;;;;;14.98;10.55;;;8.20;99.90;;;;;;6169430;23;20362;-79
2022/12/28 06:00:46;;;;;;;20.42;13.13;;;10.40;99.90;;;;;;5908103;24;20060;-81
2022/12/28 06:07:21;;;;;;;18.75;12.98;;;7.20;99.90;;;;;;5920033;24;20031;-79
2022/12/28 06:14:21;;;;;;;;;;;;;;;;;;;;;
2022/12/28 06:22:15;;;;;;;25.45;16.88;;;9.10;99.90;;;;;;5902573;24;20068;-80
2022/12/28 06:24:44;;;;;;;25.45;16.60;;;8.40;99.90;;;;;;5902537;23;20016;-80
2022/12/28 06:27:37;;;;;;;23.05;15.52;;;8.40;99.90;;;;;;6047325;23;20077;-80
2022/12/28 06:30:04;;;;;;;23.02;13.98;;;8.60;99.90;;;;;;6078995;23;20098;-81
2022/12/28 06:32:51;;;;;;;22.13;15.68;;;8.70;99.90;;;;;;6117506;23;20048;-78
2022/12/28 06:35:19;;;;;;;20.02;13.82;;;8.90;99.90;;;;;;6162207;23;20024;-79
2022/12/28 06:37:46;;;;;;;18.38;14.10;;;8.60;99.90;;;;;;6194101;23;20044;-79
2022/12/28 06:40:15;;;;;;;18.70;13.13;;;9.00;99.90;;;;;;6171520;23;20040;-79
2022/12/28 06:42:54;;;;;;;17.67;12.15;;;8.60;99.90;;;;;;6165721;23;20008;-80
2022/12/28 06:46:01;;;;;;;14.85;10.57;;;7.00;99.90;;;;;;6167837;23;20016;-79
2022/12/28 06:49:11;;;;;;;15.25;10.75;;;8.50;99.90;;;;;;6084619;23;20136;-80
2022/12/28 06:52:28;;;;;;;;;;;;;;;;;;;;;
2022/12/28 06:55:34;;;;;;;;;;;;;;;;;;;;;
2022/12/28 07:21:49;;;;;;;13.73;9.60;;;9.00;99.90;;;;;;5823089;24;20054;-79
2022/12/28 07:24:52;;;;;;;13.63;9.95;;;7.40;99.90;;;;;;5876496;24;20230;-78
2022/12/28 07:27:25;;;;;;;14.80;8.32;;;9.10;99.90;;;;;;5897723;24;20060;-78
2022/12/28 07:30:09;;;;;;;19.00;10.55;;;9.10;99.90;;;;;;5937312;24;20085;-79
2022/12/28 07:33:49;;;;;;;;;;;;;;;;;;;;;
2022/12/28 07:36:30;;;;;;;17.85;10.65;;;8.80;99.90;;;;;;5903462;24;20039;-78
2022/12/28 07:43:38;;;;;;;19.25;12.40;;;7.90;99.90;;;;;;5902707;24;20028;-79
2022/12/28 07:46:14;;;;;;;19.55;12.15;;;9.00;99.90;;;;;;5922744;24;20525;-79
2022/12/28 07:48:52;;;;;;;17.48;11.77;;;8.70;99.90;;;;;;5934848;24;20248;-79
2022/12/28 07:51:26;;;;;;;19.65;12.35;;;9.10;99.90;;;;;;5958908;24;20016;-79
2022/12/28 08:09:36;;;;;;;;;;;;;;;;;;;;;
2022/12/28 08:23:45;;;;;;;21.40;13.13;;;8.30;99.90;;;;;;5871600;24;20017;-73
2022/12/28 08:26:58;;;;;;;;;;;;;;;;;;;;;
2022/12/28 08:34:14;;;;;;;19.60;13.02;;;9.00;99.90;;;;;;5887849;24;20191;-78
2022/12/28 08:37:50;;;;;;;19.35;13.68;;;9.50;99.90;;;;;;5876051;24;20035;-78
2022/12/28 08:55:27;;;;;;;18.65;12.45;;;9.50;99.90;;;;;;5957160;24;20016;-78
2022/12/28 09:01:54;;;;;;;;;;;;;;;;;;;;;
2022/12/28 09:04:47;;;;;;;14.07;10.80;;;9.40;99.90;;;;;;6180687;23;20220;-78
2022/12/28 09:07:50;;;;;;;12.43;8.70;;;9.30;99.90;;;;;;6258204;22;20057;-78
2022/12/28 09:10:24;;;;;;;10.43;7.32;;;9.90;99.90;;;;;;6126928;22;20050;-78
2022/12/28 09:21:09;;;;;;;10.10;6.75;;;10.50;99.90;;;;;;6282198;22;20724;-78
2022/12/28 09:27:38;;;;;;;7.05;5.57;;;9.40;99.90;;;;;;6157332;23;20023;-78
2022/12/28 09:30:19;;;;;;;6.82;5.50;;;9.50;99.90;;;;;;6133617;23;20072;-78
2022/12/28 09:37:10;;;;;;;7.20;5.03;;;10.20;99.90;;;;;;6042745;23;20185;-78
2022/12/28 09:39:47;;;;;;;6.82;4.97;;;9.90;99.90;;;;;;6132996;23;20040;-77
2022/12/28 09:49:57;;;;;;;7.15;5.32;;;11.00;99.90;;;;;;6217409;23;20206;-79
2022/12/28 09:56:59;;;;;;;7.28;5.20;;;9.60;99.90;;;;;;6187710;23;20087;-78
2022/12/28 10:04:19;;;;;;;;;;;;;;;;;;;;;
2022/12/28 10:08:03;;;;;;;8.88;5.80;;;9.60;99.90;;;;;;5979105;23;20126;-77
2022/12/28 10:10:58;;;;;;;8.25;5.78;;;8.10;99.90;;;;;;6032481;23;20060;-77
2022/12/28 10:13:57;;;;;;;8.35;5.95;;;9.40;99.90;;;;;;6079625;23;20039;-78
2022/12/28 10:16:26;;;;;;;8.38;5.65;;;9.40;99.90;;;;;;6194414;23;20062;-80
2022/12/28 10:18:53;;;;;;;8.15;5.45;;;9.50;99.90;;;;;;6193621;23;20227;-77
2022/12/28 10:21:43;;;;;;;7.40;4.90;;;10.00;99.90;;;;;;6222752;22;20071;-77
2022/12/28 10:24:12;;;;;;;6.65;4.70;;;9.70;99.90;;;;;;6260855;22;20040;-77
2022/12/28 10:26:40;;;;;;;6.38;4.55;;;9.60;99.90;;;;;;6261427;22;20011;-77
2022/12/28 10:29:16;;;;;;;6.70;4.40;;;9.60;99.90;;;;;;6261392;22;20078;-77
2022/12/28 10:31:42;;;;;;;7.88;4.25;;;9.50;99.90;;;;;;6286978;22;20012;-77
2022/12/28 10:34:16;;;;;;;7.47;4.63;;;9.60;99.90;;;;;;6287068;22;20057;-77
2022/12/28 10:36:43;;;;;;;6.53;4.07;;;10.10;99.90;;;;;;6287081;22;20011;-78
2022/12/28 10:39:30;;;;;;;5.85;4.30;;;9.50;99.90;;;;;;6262056;22;20260;-78
2022/12/28 10:41:59;;;;;;;5.25;3.85;;;9.80;99.90;;;;;;6260053;22;20201;-77
2022/12/28 10:44:26;;;;;;;6.55;4.40;;;10.00;99.90;;;;;;6260256;22;20022;-77
2022/12/28 10:47:00;;;;;;;7.90;5.30;;;10.00;99.90;;;;;;6261132;22;20074;-78
2022/12/28 10:49:30;;;;;;;8.52;5.20;;;9.90;99.90;;;;;;6287502;22;20018;-77
2022/12/28 10:52:03;;;;;;;7.25;4.97;;;10.10;99.90;;;;;;6286582;22;20052;-77
2022/12/28 10:54:33;;;;;;;9.20;5.43;;;9.70;99.90;;;;;;6287348;22;20008;-77
2022/12/28 10:56:59;;;;;;;10.05;6.10;;;10.10;99.90;;;;;;6286765;22;20183;-78
2022/12/28 10:59:28;;;;;;;8.82;5.97;;;10.10;99.90;;;;;;6236362;22;20014;-78
2022/12/28 11:02:11;;;;;;;7.55;5.53;;;10.20;99.90;;;;;;6260463;22;20011;-77
2022/12/28 11:04:54;;;;;;;9.07;6.20;;;9.70;99.90;;;;;;6265135;22;20093;-77
2022/12/28 11:07:38;;;;;;;8.07;5.45;;;10.10;99.90;;;;;;6262124;22;20007;-77
2022/12/28 11:10:25;;;;;;;7.05;4.95;;;9.70;99.90;;;;;;6261740;22;20026;-77
2022/12/28 11:12:59;;;;;;;6.47;5.03;;;9.70;99.90;;;;;;6285933;22;20011;-77
2022/12/28 11:15:28;;;;;;;6.22;4.50;;;9.80;99.90;;;;;;6287929;22;20067;-78
2022/12/28 11:17:58;;;;;;;6.50;4.47;;;10.20;99.90;;;;;;6286731;22;20011;-77
2022/12/28 11:20:37;;;;;;;7.00;4.22;;;9.60;99.90;;;;;;6287153;22;20014;-78
2022/12/28 11:23:08;;;;;;;8.27;4.45;;;9.70;99.90;;;;;;6260469;22;20182;-78
2022/12/28 11:25:37;;;;;;;6.88;4.45;;;9.70;99.90;;;;;;6261887;22;20014;-78
2022/12/28 11:28:21;;;;;;;5.85;4.05;;;10.30;99.90;;;;;;6286645;22;20006;-78
2022/12/28 11:30:49;;;;;;;5.88;4.15;;;9.70;99.90;;;;;;6261205;22;20434;-78
2022/12/28 11:33:42;;;;;;;6.72;3.88;;;9.80;99.90;;;;;;6235718;22;20011;-77
2022/12/28 11:36:20;;;;;;;7.22;3.53;;;9.70;99.90;;;;;;6261160;22;20011;-77
2022/12/28 11:38:49;;;;;;;5.68;3.65;;;9.70;99.90;;;;;;6262020;22;20023;-78
2022/12/28 11:41:44;;;;;;;6.35;4.35;;;10.10;99.90;;;;;;6262387;22;20008;-78
2022/12/28 11:44:39;;;;;;;6.28;3.60;;;9.90;99.90;;;;;;6284999;22;20019;-76
2022/12/28 11:47:21;;;;;;;7.25;3.38;;;9.80;99.90;;;;;;6234797;22;20074;-78
2022/12/28 11:49:47;;;;;;;4.45;3.40;;;9.90;99.90;;;;;;6286911;22;20011;-77
2022/12/28 11:52:16;;;;;;;5.05;3.92;;;9.70;99.90;;;;;;6261248;22;20038;-77
2022/12/28 11:54:53;;;;;;;4.97;3.78;;;10.30;99.90;;;;;;6260665;22;20320;-77
2022/12/28 11:57:38;;;;;;;4.75;3.53;;;9.80;99.90;;;;;;6286941;22;20011;-77
2022/12/28 12:00:18;;;;;;;4.47;3.40;;;10.30;99.90;;;;;;6286117;22;20014;-77
2022/12/28 12:02:52;;;;;;;4.22;3.67;;;9.80;99.90;;;;;;6286234;22;20011;-78
2022/12/28 12:05:37;;;;;;;4.60;3.78;;;10.20;99.90;;;;;;6286963;22;20007;-77
2022/12/28 12:08:14;;;;;;;5.63;4.33;;;10.00;99.90;;;;;;6260813;22;20143;-77
2022/12/28 12:10:43;;;;;;;5.80;4.10;;;10.30;99.90;;;;;;6261328;22;20329;-77
2022/12/28 12:13:24;;;;;;;5.13;4.20;;;10.00;99.90;;;;;;6284146;22;20046;-77
2022/12/28 12:16:02;;;;;;;5.72;4.25;;;10.20;99.90;;;;;;6261242;22;20045;-77
2022/12/28 12:18:32;;;;;;;4.85;3.78;;;10.10;99.90;;;;;;6286939;22;20015;-78
2022/12/28 12:21:05;;;;;;;5.63;4.22;;;10.10;99.90;;;;;;6286489;22;20080;-78
2022/12/28 12:23:51;;;;;;;5.47;4.03;;;10.20;99.90;;;;;;6261216;22;20019;-78
2022/12/28 12:26:36;;;;;;;6.70;4.90;;;9.70;99.90;;;;;;6284964;22;20186;-78
2022/12/28 12:29:11;;;;;;;4.35;3.78;;;9.80;99.90;;;;;;6261321;22;20071;-78
2022/12/28 12:31:46;;;;;;;6.07;4.07;;;10.20;99.90;;;;;;6261402;22;20070;-78
2022/12/28 12:34:42;;;;;;;6.10;4.05;;;9.70;99.90;;;;;;6260381;22;20080;-77
2022/12/28 12:37:19;;;;;;;4.88;3.67;;;9.70;99.90;;;;;;6260438;22;20276;-78
2022/12/28 12:40:08;;;;;;;4.47;3.50;;;9.80;99.90;;;;;;6260942;22;20038;-78
2022/12/28 12:42:48;;;;;;;3.78;3.20;;;9.60;99.90;;;;;;6285941;22;20022;-78
2022/12/28 12:45:31;;;;;;;4.63;3.47;;;10.20;99.90;;;;;;6257599;22;20040;-78
2022/12/28 12:47:57;;;;;;;3.70;2.90;;;10.30;99.90;;;;;;6285032;22;20011;-78
2022/12/28 12:50:49;;;;;;;3.55;2.83;;;9.60;99.90;;;;;;6259866;22;20025;-78
2022/12/28 12:53:50;;;;;;;3.50;2.45;;;9.60;99.90;;;;;;6259636;22;20015;-78
2022/12/28 12:56:32;;;;;;;3.42;2.72;;;9.60;99.90;;;;;;6260088;22;20070;-78
2022/12/28 12:59:36;;;;;;;3.30;2.88;;;10.00;99.90;;;;;;6260478;22;20104;-79
2022/12/28 13:02:10;;;;;;;3.17;2.58;;;9.90;99.90;;;;;;6259768;22;20074;-79
2022/12/28 13:04:38;;;;;;;;;;;9.60;99.90;;;;;;6260579;22;20038;-78
2022/12/28 13:07:15;;;;;;;3.92;2.92;;;10.10;99.90;;;;;;6286161;22;19934;-78
2022/12/28 13:09:42;;;;;;;3.63;2.67;;;9.80;99.90;;;;;;6286356;22;20007;-78
2022/12/28 13:12:14;;;;;;;3.72;3.30;;;9.70;99.90;;;;;;6260811;22;20229;-78
2022/12/28 13:14:44;;;;;;;3.40;2.65;;;9.60;99.90;;;;;;6258380;22;20053;-78
2022/12/28 13:17:19;;;;;;;4.03;3.05;;;9.70;99.90;;;;;;6259221;22;20007;-77
2022/12/28 13:19:45;;;;;;;4.88;2.60;;;9.60;99.90;;;;;;6284802;22;20309;-77
2022/12/28 13:22:28;;;;;;;3.83;3.15;;;10.10;99.90;;;;;;6285108;22;20431;-77
2022/12/28 13:24:54;;;;;;;4.50;3.58;;;9.60;99.90;;;;;;6234173;22;20007;-77
2022/12/28 13:27:21;;;;;;;4.82;3.38;;;9.60;99.90;;;;;;6258567;22;20015;-77
2022/12/28 13:30:00;;;;;;;4.15;3.58;;;9.60;99.90;;;;;;6235458;22;20027;-77
2022/12/28 13:32:27;;;;;;;4.20;3.65;;;9.60;99.90;;;;;;6235314;22;20019;-77
2022/12/28 13:34:54;;;;;;;4.28;3.70;;;10.00;99.90;;;;;;6285293;22;20053;-78
2022/12/28 13:37:20;;;;;;;4.40;3.70;;;10.00;99.90;;;;;;6261240;22;20030;-78
2022/12/28 13:39:46;;;;;;;5.22;3.78;;;9.50;99.90;;;;;;6288357;22;20070;-78
2022/12/28 13:42:18;;;;;;;3.70;3.35;;;10.10;99.90;;;;;;6261911;22;20430;-78
2022/12/28 13:44:47;;;;;;;5.65;3.63;;;10.10;99.90;;;;;;6287760;22;20234;-78
2022/12/28 13:47:34;;;;;;;4.35;3.05;;;9.60;99.90;;;;;;6287103;22;20359;-79
2022/12/28 13:50:22;;;;;;;3.90;3.17;;;9.90;99.90;;;;;;6284855;22;20019;-78
2022/12/28 13:53:03;;;;;;;3.95;2.90;;;9.70;99.90;;;;;;6262026;22;20019;-80
2022/12/28 13:55:55;;;;;;;4.07;2.72;;;10.00;99.90;;;;;;6288070;22;20046;-78
2022/12/28 13:58:32;;;;;;;3.65;2.55;;;9.50;99.90;;;;;;6260618;22;20015;-78
2022/12/28 14:01:00;;;;;;;3.58;2.58;;;10.00;99.90;;;;;;6262384;22;20038;-78
2022/12/28 14:03:27;;;;;;;3.65;2.40;;;10.00;99.90;;;;;;6286775;22;20015;-78
2022/12/28 14:06:00;;;;;;;3.05;2.30;;;9.80;99.90;;;;;;6262671;22;20007;-78
2022/12/28 14:08:28;;;;;;;2.80;2.58;;;9.60;99.90;;;;;;6287354;22;20156;-77
2022/12/28 14:10:54;;;;;;;2.70;2.35;;;9.70;99.90;;;;;;6260140;22;20019;-78
2022/12/28 14:13:21;;;;;;;3.75;2.40;;;9.90;99.90;;;;;;6211249;22;20023;-78
2022/12/28 14:15:47;;;;;;;2.92;2.10;;;9.80;99.90;;;;;;6262028;22;20066;-77
2022/12/28 14:18:15;;;;;;;2.75;2.05;;;9.50;99.90;;;;;;6286436;22;20131;-77
2022/12/28 14:20:55;;;;;;;3.75;2.10;;;9.70;99.90;;;;;;6260929;22;20019;-77
2022/12/28 14:23:29;;;;;;;4.20;2.20;;;9.50;99.90;;;;;;6211013;22;20011;-77
2022/12/28 14:26:02;;;;;;;6.90;2.42;;;9.40;99.90;;;;;;6262332;22;20013;-78
2022/12/28 14:28:36;;;;;;;3.40;2.38;;;9.70;99.90;;;;;;6262185;22;20007;-78
2022/12/28 14:31:04;;;;;;;3.10;2.20;;;9.30;99.90;;;;;;6260164;22;20027;-77
2022/12/28 14:33:34;;;;;;;4.10;2.53;;;9.10;99.90;;;;;;6261914;22;20019;-77
2022/12/28 14:36:05;;;;;;;3.33;2.72;;;9.70;99.90;;;;;;6260408;22;20202;-77
2022/12/28 14:38:44;;;;;;;6.60;2.75;;;9.70;99.90;;;;;;6261262;22;20027;-78
2022/12/28 14:41:17;;;;;;;4.55;2.88;;;9.70;99.90;;;;;;6286938;22;20015;-78
2022/12/28 14:43:49;;;;;;;4.40;3.15;;;9.40;99.90;;;;;;6261375;22;20025;-78
2022/12/28 14:46:30;;;;;;;5.63;3.83;;;9.50;99.90;;;;;;6260702;22;20351;-79
2022/12/28 14:48:57;;;;;;;4.15;3.35;;;9.10;99.90;;;;;;6285723;22;20021;-79
2022/12/28 14:51:26;;;;;;;7.28;3.70;;;9.70;99.90;;;;;;6259055;22;20074;-78
2022/12/28 14:54:16;;;;;;;4.50;3.80;;;9.10;99.90;;;;;;6260025;22;20099;-79
2022/12/28 14:56:44;;;;;;;5.60;3.95;;;9.40;99.90;;;;;;6260198;22;20073;-79
2022/12/28 14:59:31;;;;;;;7.93;5.00;;;9.70;99.90;;;;;;6234757;22;20252;-79
2022/12/28 15:01:57;;;;;;;8.70;5.55;;;9.40;99.90;;;;;;6259642;22;20070;-79
2022/12/28 15:04:38;;;;;;;5.93;5.13;;;9.20;99.90;;;;;;6258290;22;20112;-78
2022/12/28 15:07:08;;;;;;;8.02;4.88;;;9.80;99.90;;;;;;6260956;22;20030;-77
2022/12/28 15:09:34;;;;;;;6.82;5.00;;;9.80;99.90;;;;;;6286008;22;20015;-77
2022/12/28 15:12:16;;;;;;;10.57;6.20;;;9.20;99.90;;;;;;6234848;22;20105;-76
2022/12/28 15:14:44;;;;;;;7.40;5.00;;;9.70;99.90;;;;;;6260028;22;20007;-77
2022/12/28 15:17:10;;;;;;;7.35;4.78;;;9.40;99.90;;;;;;6235479;22;20038;-78
2022/12/28 15:19:41;;;;;;;9.02;5.55;;;9.40;99.90;;;;;;6236134;22;20284;-78
2022/12/28 15:22:07;;;;;;;11.23;5.63;;;9.70;99.90;;;;;;6284334;22;20228;-77
2022/12/28 15:24:33;;;;;;;5.85;4.65;;;9.20;99.90;;;;;;6233575;22;20029;-78
2022/12/28 15:26:59;;;;;;;8.05;5.47;;;9.70;99.90;;;;;;6261140;22;20015;-77
2022/12/28 15:29:24;;;;;;;8.48;6.05;;;9.40;99.90;;;;;;6234563;22;20080;-76
2022/12/28 15:31:50;;;;;;;10.75;6.20;;;9.40;99.90;;;;;;6262051;22;20236;-78
2022/12/28 15:34:19;;;;;;;9.18;5.60;;;9.70;99.90;;;;;;6232413;22;20316;-77
2022/12/28 15:36:45;;;;;;;9.98;5.60;;;9.80;99.90;;;;;;6286432;22;20030;-77
2022/12/28 15:39:15;;;;;;;8.15;5.93;;;9.70;99.90;;;;;;6261616;22;20128;-78
2022/12/28 15:41:47;;;;;;;10.82;5.80;;;10.50;99.90;;;;;;6261587;22;20015;-78
2022/12/28 15:44:22;;;;;;;10.25;5.82;;;9.70;99.90;;;;;;6261723;22;20023;-77
2022/12/28 15:46:51;;;;;;;10.13;6.38;;;9.80;99.90;;;;;;6261772;22;20007;-78
2022/12/28 15:49:17;;;;;;;8.95;5.72;;;9.80;99.90;;;;;;6235768;22;20263;-76
2022/12/28 15:51:44;;;;;;;12.43;6.00;;;9.80;99.90;;;;;;6235416;22;20033;-78
2022/12/28 15:54:17;;;;;;;9.20;5.65;;;9.50;99.90;;;;;;6260826;22;20022;-77
2022/12/28 15:57:01;;;;;;;10.07;6.18;;;9.10;99.90;;;;;;6235862;22;20077;-76
2022/12/28 15:59:27;;;;;;;8.00;5.75;;;9.70;99.90;;;;;;6287155;22;20442;-77
2022/12/28 16:01:52;;;;;;;9.95;6.60;;;9.10;99.90;;;;;;6234272;22;20062;-76
2022/12/28 16:04:18;;;;;;;7.63;5.70;;;9.20;99.90;;;;;;6260588;22;20007;-77
2022/12/28 16:06:44;;;;;;;10.57;4.85;;;9.20;99.90;;;;;;6235128;22;20007;-77
2022/12/28 16:09:15;;;;;;;10.68;5.88;;;9.30;99.90;;;;;;6235884;22;20296;-77
2022/12/28 16:11:44;;;;;;;8.50;5.32;;;9.20;99.90;;;;;;6283893;22;20012;-77
2022/12/28 16:14:14;;;;;;;11.55;5.65;;;9.70;99.90;;;;;;6286599;22;20022;-78
2022/12/28 16:16:50;;;;;;;5.45;3.75;;;9.20;99.90;;;;;;6285684;22;20037;-79
2022/12/28 16:19:18;;;;;;;9.05;5.97;;;8.90;99.90;;;;;;6260049;22;20015;-78
2022/12/28 16:21:50;;;;;;;8.93;5.03;;;9.70;99.90;;;;;;6259760;22;20068;-78
2022/12/28 16:24:18;;;;;;;10.15;5.53;;;9.60;99.90;;;;;;6259367;22;20271;-77
2022/12/28 16:26:48;;;;;;;8.63;5.05;;;9.60;99.90;;;;;;6260084;22;20011;-79
2022/12/28 16:29:17;;;;;;;8.30;5.25;;;9.20;99.90;;;;;;6237689;22;20038;-79
2022/12/28 16:31:46;;;;;;;9.48;5.32;;;9.10;99.90;;;;;;6260732;22;20003;-79
2022/12/28 16:34:16;;;;;;;6.47;4.90;;;9.20;99.90;;;;;;6261020;22;20441;-78
2022/12/28 16:36:45;;;;;;;7.53;5.05;;;9.60;99.90;;;;;;6285677;22;20047;-78
2022/12/28 16:39:14;;;;;;;9.57;5.82;;;9.30;99.90;;;;;;6260553;22;20074;-77
2022/12/28 16:41:40;;;;;;;8.32;4.80;;;9.50;99.90;;;;;;6260948;22;20019;-78
2022/12/28 16:44:19;;;;;;;10.73;6.05;;;9.20;99.90;;;;;;6261455;22;20010;-78
2022/12/28 16:46:52;;;;;;;6.90;4.82;;;9.50;99.90;;;;;;6260077;22;20070;-78
2022/12/28 16:49:18;;;;;;;13.00;6.15;;;9.20;99.90;;;;;;6234935;22;20019;-77
2022/12/28 16:51:49;;;;;;;9.60;5.53;;;9.60;99.90;;;;;;6233221;22;20057;-78
2022/12/28 16:54:20;;;;;;;8.25;5.38;;;9.40;99.90;;;;;;6257317;22;20039;-77
2022/12/28 16:56:49;;;;;;;8.52;5.65;;;9.10;99.90;;;;;;6285672;22;20115;-78
2022/12/28 16:59:23;;;;;;;8.70;5.55;;;9.10;99.90;;;;;;6260598;22;20027;-78
2022/12/28 17:01:50;;;;;;;11.73;7.40;;;9.50;99.90;;;;;;6260484;22;20022;-78
2022/12/28 17:04:16;;;;;;;9.55;5.05;;;9.10;99.90;;;;;;6284295;22;20093;-78
2022/12/28 17:06:45;;;;;;;10.82;4.47;;;9.40;99.90;;;;;;6259057;22;20021;-79
2022/12/28 17:09:14;;;;;;;9.65;5.85;;;9.10;99.90;;;;;;6260813;22;20008;-79
2022/12/28 17:11:40;;;;;;;10.15;6.40;;;9.60;99.90;;;;;;6235159;22;20061;-78
2022/12/28 17:14:10;;;;;;;9.90;5.40;;;9.60;99.90;;;;;;6234799;22;20014;-78
2022/12/28 17:16:39;;;;;;;9.75;6.78;;;9.50;99.90;;;;;;6259373;22;20011;-78
2022/12/28 17:19:08;;;;;;;9.80;5.80;;;9.30;99.90;;;;;;6286342;22;20023;-78
2022/12/28 17:21:36;;;;;;;7.65;5.60;;;9.20;99.90;;;;;;6234662;22;20011;-79
2022/12/28 17:24:02;;;;;;;9.05;5.35;;;9.50;99.90;;;;;;6260075;22;20015;-79
2022/12/28 17:26:28;;;;;;;8.10;4.75;;;9.60;99.90;;;;;;6259698;22;20067;-80
2022/12/28 17:28:55;;;;;;;8.55;5.57;;;9.40;99.90;;;;;;6232207;22;20109;-78
2022/12/28 17:31:22;;;;;;;8.55;5.38;;;9.60;99.90;;;;;;6259683;22;20019;-78
2022/12/28 17:33:54;;;;;;;11.13;6.20;;;9.00;99.90;;;;;;6260061;22;20026;-77
2022/12/28 17:36:21;;;;;;;9.57;5.85;;;9.00;99.90;;;;;;6257581;22;20286;-79
2022/12/28 17:38:46;;;;;;;9.50;5.65;;;9.50;99.90;;;;;;6260198;22;20015;-80
2022/12/28 17:41:19;;;;;;;10.02;5.03;;;9.00;99.90;;;;;;6286274;22;20030;-77
2022/12/28 17:43:53;;;;;;;9.27;5.85;;;9.30;99.90;;;;;;6259395;22;20007;-78
2022/12/28 17:46:22;;;;;;;9.37;6.00;;;9.10;99.90;;;;;;6284752;22;20015;-79
2022/12/28 17:48:50;;;;;;;8.85;4.72;;;9.40;99.90;;;;;;6286142;22;20015;-79
2022/12/28 17:51:16;;;;;;;9.45;5.95;;;8.80;99.90;;;;;;6260316;22;20214;-79
2022/12/28 17:53:44;;;;;;;8.15;5.43;;;9.00;99.90;;;;;;6259648;22;20018;-79
2022/12/28 17:56:14;;;;;;;6.95;4.53;;;9.50;99.90;;;;;;6232234;22;20292;-79
2022/12/28 17:58:42;;;;;;;3.95;3.53;;;9.40;99.90;;;;;;6283426;22;20041;-78
2022/12/28 18:01:11;;;;;;;8.18;4.32;;;9.10;99.90;;;;;;6235578;22;20197;-78
2022/12/28 18:03:40;;;;;;;10.25;5.07;;;9.20;99.90;;;;;;6209646;22;20019;-79
2022/12/28 18:06:06;;;;;;;8.70;3.58;;;9.40;99.90;;;;;;6259822;22;20015;-80
2022/12/28 18:08:35;;;;;;;7.10;4.15;;;9.40;99.90;;;;;;6259952;22;20076;-80
2022/12/28 18:11:01;;;;;;;6.60;4.47;;;8.90;99.90;;;;;;6261666;22;20198;-79